Time;durP1;ratioP1;P1;durP2;ratioP2;P2;SDS_P1;SDS_P2;PMS_P1;PMS_P2;Temp;Humidity;BMP_temperature;BMP_pressure;BME280_temperature;BME280_humidity;BME280_pressure;Samples;Min_cycle;Max_cycle;Signal;HPM_P1;HPM_P2
2021/01/18 00:04:28;;;;;;;40.28;12.45;;;1.30;99.90;;;;;;20992106;28;20016;-77
2021/01/18 00:14:29;;;;;;;30.30;13.40;;;1.30;99.90;;;;;;20993506;28;20108;-77
2021/01/18 00:24:30;;;;;;;28.17;12.70;;;1.30;99.90;;;;;;20992498;28;20052;-77
2021/01/18 00:34:31;;;;;;;23.45;11.15;;;1.30;99.90;;;;;;20991882;28;20102;-77
2021/01/18 00:44:32;;;;;;;23.15;10.10;;;1.30;99.90;;;;;;20985773;28;20024;-77
2021/01/18 00:54:33;;;;;;;29.63;11.75;;;1.20;99.90;;;;;;20990875;28;20025;-77
2021/01/18 01:04:45;;;;;;;28.90;12.15;;;1.20;99.90;;;;;;20990291;28;20040;-77
2021/01/18 01:14:46;;;;;;;34.53;13.23;;;1.20;99.90;;;;;;20990831;28;20427;-77
2021/01/18 01:24:46;;;;;;;27.95;12.75;;;1.10;99.90;;;;;;20990315;28;20056;-77
2021/01/18 01:34:47;;;;;;;26.13;11.52;;;1.10;99.90;;;;;;20990053;28;20041;-77
2021/01/18 01:44:48;;;;;;;;;;;1.20;99.90;;;;;;20989043;28;20077;-77
2021/01/18 01:54:57;;;;;;;26.83;10.75;;;1.20;99.90;;;;;;21002587;28;19915;-77
2021/01/18 02:04:58;;;;;;;34.40;11.18;;;1.20;99.90;;;;;;21005419;28;20509;-77
2021/01/18 02:15:08;;;;;;;35.03;10.00;;;1.20;99.90;;;;;;21004483;28;20090;-77
2021/01/18 02:25:41;;;;;;;30.80;10.43;;;1.20;99.90;;;;;;21003320;28;20029;-77
2021/01/18 02:36:08;;;;;;;19.52;8.50;;;1.20;99.90;;;;;;20966537;28;20124;-78
2021/01/18 02:46:12;;;;;;;29.45;10.57;;;1.20;99.90;;;;;;20992241;28;20109;-78
2021/01/18 02:56:13;;;;;;;28.63;9.60;;;1.20;99.90;;;;;;21001240;28;20086;-77
2021/01/18 03:06:18;;;;;;;25.92;10.63;;;1.10;99.90;;;;;;21000328;28;20032;-78
2021/01/18 03:16:22;;;;;;;24.98;11.45;;;1.10;99.90;;;;;;21000167;28;20028;-78
2021/01/18 03:26:25;;;;;;;40.20;11.95;;;1.10;99.90;;;;;;20997759;28;20513;-78
2021/01/18 03:36:26;;;;;;;31.92;12.80;;;1.10;99.90;;;;;;20996866;28;20028;-78
2021/01/18 03:46:27;;;;;;;31.52;11.63;;;1.10;99.90;;;;;;20996296;28;20116;-78
2021/01/18 03:56:27;;;;;;;;;;;1.10;99.90;;;;;;20975849;22;20042;-78
2021/01/18 04:06:36;;;;;;;33.63;11.83;;;1.10;99.90;;;;;;20817823;28;20379;-80
2021/01/18 04:16:41;;;;;;;33.58;13.55;;;1.10;99.90;;;;;;20826022;28;20353;-79
2021/01/18 04:26:42;;;;;;;29.73;11.25;;;1.10;99.90;;;;;;20822299;28;20082;-80
2021/01/18 04:36:43;;;;;;;38.25;11.15;;;1.10;99.90;;;;;;20820568;28;20087;-80
2021/01/18 04:46:44;;;;;;;;;;;1.10;99.90;;;;;;20756158;28;20026;-80
2021/01/18 04:57:15;;;;;;;25.92;11.00;;;1.20;99.90;;;;;;20821810;28;19914;-80
2021/01/18 05:07:34;;;;;;;26.63;11.30;;;1.20;99.90;;;;;;20811669;28;20038;-79
2021/01/18 05:17:40;;;;;;;23.45;11.05;;;1.20;99.90;;;;;;20819194;28;20037;-80
2021/01/18 05:28:09;;;;;;;27.60;10.23;;;1.20;99.90;;;;;;20814603;28;20118;-79
2021/01/18 05:38:12;;;;;;;32.40;12.02;;;1.20;99.90;;;;;;20819807;28;20037;-79
2021/01/18 05:48:24;;;;;;;27.60;11.00;;;1.20;99.90;;;;;;20812997;28;20037;-81
2021/01/18 05:58:32;;;;;;;32.13;11.68;;;1.20;99.90;;;;;;20812804;28;20079;-78
2021/01/18 06:08:33;;;;;;;31.85;11.70;;;1.20;99.90;;;;;;20801603;28;20033;-78
2021/01/18 06:18:34;;;;;;;;;;;1.10;99.90;;;;;;20731847;28;20041;-77
2021/01/18 06:28:37;;;;;;;37.33;12.35;;;1.20;99.90;;;;;;20801750;28;19909;-80
2021/01/18 06:38:39;;;;;;;32.67;12.38;;;1.20;99.90;;;;;;20807644;28;20046;-81
2021/01/18 06:48:43;;;;;;;25.35;11.68;;;1.10;99.90;;;;;;20782206;28;20045;-79
2021/01/18 06:59:04;;;;;;;34.17;12.48;;;1.10;99.90;;;;;;20797962;28;20128;-79
2021/01/18 07:09:07;;;;;;;29.75;11.95;;;1.20;99.90;;;;;;20724909;28;20042;-80
2021/01/18 07:19:09;;;;;;;35.03;11.02;;;1.10;99.90;;;;;;20727286;28;20488;-81
2021/01/18 07:29:10;;;;;;;37.65;10.55;;;1.10;99.90;;;;;;20726617;28;20105;-79
2021/01/18 07:39:23;;;;;;;29.15;11.75;;;1.20;99.90;;;;;;20797126;28;20048;-78
2021/01/18 07:49:24;;;;;;;25.88;9.82;;;1.30;99.90;;;;;;20708664;28;20030;-79
2021/01/18 07:59:24;;;;;;;;;;;1.30;99.90;;;;;;20899890;28;20058;-79
2021/01/18 08:09:26;;;;;;;26.63;10.50;;;1.40;99.90;;;;;;21047772;28;19983;-80
2021/01/18 08:19:27;;;;;;;26.63;10.27;;;1.40;99.90;;;;;;21029173;28;20211;-79
2021/01/18 08:29:43;;;;;;;19.40;9.38;;;1.50;99.90;;;;;;21029307;28;20027;-80
2021/01/18 08:39:55;;;;;;;21.83;10.57;;;1.60;99.90;;;;;;21050268;28;20040;-79
2021/01/18 08:50:15;;;;;;;;;;;1.70;99.90;;;;;;21052044;28;20808;-78
2021/01/18 09:00:16;;;;;;;30.67;11.60;;;1.90;99.90;;;;;;20888378;28;20364;-78
2021/01/18 09:10:19;;;;;;;23.85;10.27;;;1.90;99.90;;;;;;20770068;28;20045;-79
2021/01/18 09:20:20;;;;;;;20.77;9.68;;;2.00;99.90;;;;;;20723813;28;20442;-80
2021/01/18 09:30:25;;;;;;;19.30;9.37;;;2.30;99.90;;;;;;20757638;28;20042;-79
2021/01/18 09:40:27;;;;;;;28.98;10.35;;;2.30;99.90;;;;;;20754660;28;20337;-79
2021/01/18 09:50:28;;;;;;;19.77;9.52;;;2.10;99.90;;;;;;20787362;28;20703;-79
2021/01/18 10:00:32;;;;;;;27.42;11.68;;;2.10;99.90;;;;;;20788831;28;20037;-80
2021/01/18 10:10:47;;;;;;;22.00;10.10;;;2.50;99.90;;;;;;20806677;28;20090;-79
2021/01/18 10:20:53;;;;;;;19.52;9.32;;;2.70;99.90;;;;;;20792126;28;20091;-78
2021/01/18 10:30:54;;;;;;;24.20;9.55;;;2.70;99.90;;;;;;20806716;28;20029;-79
2021/01/18 10:41:08;;;;;;;18.42;8.80;;;2.80;99.90;;;;;;20799180;28;20053;-80
2021/01/18 10:51:09;;;;;;;17.90;8.80;;;3.40;99.90;;;;;;20740440;28;20026;-78
2021/01/18 11:01:12;;;;;;;19.77;8.75;;;3.60;99.90;;;;;;20841954;28;20502;-78
2021/01/18 11:11:22;;;;;;;29.00;11.25;;;4.00;99.90;;;;;;20755534;28;20083;-80
2021/01/18 11:21:26;;;;;;;21.35;10.15;;;4.00;99.90;;;;;;20791929;28;20488;-78
2021/01/18 11:31:30;;;;;;;31.98;11.77;;;3.90;99.90;;;;;;20849738;28;20033;-80
2021/01/18 11:41:36;;;;;;;22.77;9.85;;;4.00;99.90;;;;;;20761178;28;20046;-81
2021/01/18 11:51:37;;;;;;;26.50;9.00;;;4.30;99.90;;;;;;20825352;28;20388;-81
2021/01/18 12:01:44;;;;;;;19.23;8.07;;;3.70;99.90;;;;;;20735012;28;20073;-80
2021/01/18 12:11:45;;;;;;;16.27;6.82;;;4.20;99.90;;;;;;20757538;28;20029;-78
2021/01/18 12:21:50;;;;;;;18.40;7.10;;;3.60;99.90;;;;;;20858074;28;20091;-78
2021/01/18 12:31:51;;;;;;;15.30;6.95;;;4.30;99.90;;;;;;20777328;28;20042;-80
2021/01/18 12:41:52;;;;;;;14.40;7.33;;;3.80;99.90;;;;;;20827602;28;20060;-79
2021/01/18 12:51:53;;;;;;;;;;;3.60;99.90;;;;;;20766195;28;20044;-79
2021/01/18 13:01:54;;;;;;;13.02;5.75;;;4.00;99.90;;;;;;20751491;28;19921;-79
2021/01/18 13:11:55;;;;;;;12.97;5.60;;;4.10;99.90;;;;;;20880897;28;20042;-80
2021/01/18 13:21:58;;;;;;;9.93;5.27;;;4.30;99.90;;;;;;20861808;28;20338;-79
2021/01/18 13:31:59;;;;;;;13.70;5.90;;;4.10;99.90;;;;;;20840841;28;20280;-79
2021/01/18 13:42:00;;;;;;;13.50;6.13;;;3.80;99.90;;;;;;20851733;28;20037;-77
2021/01/18 13:52:02;;;;;;;15.48;6.03;;;3.70;99.90;;;;;;20803025;28;20641;-79
2021/01/18 14:02:03;;;;;;;19.48;7.28;;;3.60;99.90;;;;;;20870212;28;20034;-78
2021/01/18 14:12:08;;;;;;;;;;;3.60;99.90;;;;;;20803997;28;20042;-79
2021/01/18 14:22:09;;;;;;;21.13;7.75;;;3.50;99.90;;;;;;20829996;28;19917;-78
2021/01/18 14:32:10;;;;;;;18.35;7.78;;;3.40;99.90;;;;;;20821749;28;20032;-77
2021/01/18 14:42:11;;;;;;;16.65;7.80;;;3.20;99.90;;;;;;20849863;28;20042;-78
2021/01/18 14:52:12;;;;;;;16.57;7.43;;;3.10;99.90;;;;;;20808399;28;20041;-77
2021/01/18 15:02:13;;;;;;;20.67;7.45;;;2.90;99.90;;;;;;20802534;28;20059;-77
2021/01/18 15:12:14;;;;;;;27.48;11.00;;;2.70;99.90;;;;;;20798299;28;20041;-78
2021/01/18 15:22:15;;;;;;;;;;;2.70;99.90;;;;;;20856038;28;20262;-78
2021/01/18 15:32:16;;;;;;;17.20;8.18;;;2.60;99.90;;;;;;20825658;28;20000;-78
2021/01/18 15:42:17;;;;;;;18.00;8.77;;;2.50;99.90;;;;;;20763280;28;20034;-77
2021/01/18 15:52:17;;;;;;;14.00;7.38;;;2.40;99.90;;;;;;20823416;28;20052;-78
2021/01/18 16:02:18;;;;;;;16.63;7.33;;;2.30;99.90;;;;;;20813042;28;20559;-78
2021/01/18 16:12:19;;;;;;;27.93;8.57;;;2.20;99.90;;;;;;20808809;28;20284;-78
2021/01/18 16:22:21;;;;;;;18.80;8.13;;;2.10;99.90;;;;;;20811008;28;20425;-77
2021/01/18 16:32:24;;;;;;;18.88;8.68;;;1.90;99.90;;;;;;20739025;28;20041;-78
2021/01/18 16:42:25;;;;;;;20.42;8.65;;;1.80;99.90;;;;;;20816526;28;21601;-78
2021/01/18 16:52:26;;;;;;;21.60;10.38;;;1.70;99.90;;;;;;20835442;28;20124;-80
2021/01/18 17:02:27;;;;;;;63.17;28.35;;;1.80;99.90;;;;;;20864027;28;20037;-77
2021/01/18 17:12:28;;;;;;;49.17;18.83;;;1.80;99.90;;;;;;20855413;28;20045;-79
2021/01/18 17:22:28;;;;;;;32.95;15.40;;;1.90;99.90;;;;;;20855302;28;20048;-78
2021/01/18 17:32:29;;;;;;;43.88;20.85;;;1.80;99.90;;;;;;20847933;28;20772;-78
2021/01/18 17:42:30;;;;;;;20.83;9.13;;;1.70;99.90;;;;;;20737267;28;20030;-76
2021/01/18 17:52:31;;;;;;;;;;;1.50;99.90;;;;;;20788890;28;20046;-78
2021/01/18 18:02:32;;;;;;;44.10;18.80;;;1.50;99.90;;;;;;20810919;28;20630;-79
2021/01/18 18:12:34;;;;;;;39.75;17.50;;;1.50;99.90;;;;;;20778903;28;20613;-77
2021/01/18 18:22:35;;;;;;;23.27;9.30;;;1.30;99.90;;;;;;20737312;28;20117;-79
2021/01/18 18:32:36;;;;;;;;;;;1.00;99.90;;;;;;20744373;28;20038;-79
2021/01/18 18:42:37;;;;;;;21.88;11.05;;;1.10;99.90;;;;;;20804927;28;19964;-79
2021/01/18 18:52:43;;;;;;;21.48;10.50;;;1.10;99.90;;;;;;20751807;28;20279;-80
2021/01/18 19:02:45;;;;;;;27.20;9.85;;;1.10;99.90;;;;;;20818491;28;20065;-80
2021/01/18 19:12:45;;;;;;;;;;;1.10;99.90;;;;;;20817591;28;20055;-76
2021/01/18 19:22:50;;;;;;;24.30;9.77;;;1.10;99.90;;;;;;20810449;28;19917;-78
2021/01/18 19:32:51;;;;;;;17.67;9.15;;;1.10;99.90;;;;;;20851948;28;20045;-79
2021/01/18 19:42:52;;;;;;;;;;;1.10;99.90;;;;;;20862416;28;20671;-78
2021/01/18 19:52:53;;;;;;;30.10;12.68;;;0.90;99.90;;;;;;20842383;28;20492;-80
2021/01/18 20:02:54;;;;;;;31.17;12.55;;;0.90;99.90;;;;;;20756654;28;20030;-77
2021/01/18 20:12:58;;;;;;;28.45;13.15;;;0.80;99.90;;;;;;20812910;28;20098;-78
2021/01/18 20:22:59;;;;;;;26.02;12.13;;;0.70;99.90;;;;;;20801054;28;20065;-77
2021/01/18 20:33:00;;;;;;;23.38;13.02;;;0.70;99.90;;;;;;20745116;28;20034;-79
2021/01/18 20:43:01;;;;;;;25.23;12.63;;;0.70;99.90;;;;;;20815812;28;20037;-77
2021/01/18 20:53:03;;;;;;;28.73;12.73;;;0.60;99.90;;;;;;20743192;28;20491;-79
2021/01/18 21:03:07;;;;;;;35.35;16.30;;;0.60;99.90;;;;;;20797697;28;20069;-80
2021/01/18 21:13:08;;;;;;;37.72;15.15;;;0.60;99.90;;;;;;20797412;28;20121;-79
2021/01/18 21:23:09;;;;;;;30.30;15.05;;;0.50;99.90;;;;;;20794502;28;20109;-79
2021/01/18 21:33:10;;;;;;;31.85;15.13;;;0.30;99.90;;;;;;20810199;28;20038;-78
2021/01/18 21:43:11;;;;;;;35.90;16.13;;;0.00;99.90;;;;;;20816316;28;20075;-77
2021/01/18 21:53:12;;;;;;;35.92;16.02;;;0.00;99.90;;;;;;20820103;28;20045;-80
2021/01/18 22:03:12;;;;;;;37.33;17.35;;;-0.10;99.90;;;;;;20815022;28;20040;-78
2021/01/18 22:13:13;;;;;;;41.67;16.42;;;-0.20;99.90;;;;;;20824725;28;20108;-79
2021/01/18 22:23:14;;;;;;;89.50;16.55;;;-0.30;99.90;;;;;;20751651;28;20512;-79
2021/01/18 22:33:15;;;;;;;49.00;16.85;;;-0.60;99.90;;;;;;20751301;28;20038;-78
2021/01/18 22:43:16;;;;;;;30.92;15.10;;;-0.70;99.90;;;;;;20747370;28;20038;-78
2021/01/18 22:53:17;;;;;;;37.88;15.75;;;-0.80;99.90;;;;;;20814222;28;20369;-79
2021/01/18 23:03:18;;;;;;;56.47;16.77;;;-0.90;99.90;;;;;;20798135;28;20045;-78
2021/01/18 23:13:18;;;;;;;27.67;12.30;;;-0.80;99.90;;;;;;20816675;28;20044;-81
2021/01/18 23:23:19;;;;;;;21.25;10.90;;;-1.00;99.90;;;;;;20798494;28;20631;-82
2021/01/18 23:33:20;;;;;;;18.00;9.63;;;-0.90;99.90;;;;;;20813230;28;20037;-78
2021/01/18 23:43:21;;;;;;;24.70;10.27;;;-1.00;99.90;;;;;;20810325;28;20117;-80
2021/01/18 23:53:22;;;;;;;24.63;11.18;;;-1.40;99.90;;;;;;20813687;28;20603;-79
